createdAt,value
2023-02-12T00:01:39.058Z,3.71
2023-02-12T00:04:06.416Z,3.72
2023-02-12T00:06:33.589Z,3.74
2023-02-12T00:09:03.817Z,3.72
2023-02-12T00:11:30.931Z,3.72
2023-02-12T00:13:58.343Z,3.71
2023-02-12T00:16:27.374Z,3.67
2023-02-12T00:18:59.455Z,3.68
2023-02-12T00:21:29.809Z,3.72
2023-02-12T00:23:57.164Z,3.71
2023-02-12T00:26:24.760Z,3.73
2023-02-12T00:28:59.950Z,3.71
2023-02-12T00:31:31.613Z,3.72
2023-02-12T00:34:00.073Z,3.72
2023-02-12T00:36:32.844Z,3.71
2023-02-12T00:39:02.726Z,3.72
2023-02-12T00:41:30.442Z,3.73
2023-02-12T00:44:06.537Z,3.74
2023-02-12T00:46:37.855Z,3.74
2023-02-12T00:49:08.215Z,3.73
2023-02-12T00:51:44.663Z,3.72
2023-02-12T00:54:12.828Z,3.71
2023-02-12T00:56:40.365Z,3.71
2023-02-12T00:59:08.162Z,3.72
2023-02-12T01:01:36.149Z,3.72
2023-02-12T01:04:12.999Z,3.75
2023-02-12T01:06:45.875Z,3.72
2023-02-12T01:09:18.383Z,3.71
2023-02-12T01:11:50.081Z,3.71
2023-02-12T01:14:18.988Z,3.70
2023-02-12T01:16:47.013Z,3.71
2023-02-12T01:19:23.062Z,3.71
2023-02-12T01:21:50.987Z,3.74
2023-02-12T01:24:21.475Z,3.76
2023-02-12T01:26:48.560Z,3.73
2023-02-12T01:29:18.650Z,3.71
2023-02-12T01:31:48.933Z,3.76
2023-02-12T01:34:17.831Z,3.75
2023-02-12T01:36:45.078Z,3.73
2023-02-12T01:39:13.684Z,3.74
2023-02-12T01:41:45.861Z,3.75
2023-02-12T01:44:25.670Z,3.74
2023-02-12T01:47:06.299Z,3.74
2023-02-12T01:49:46.089Z,3.75
2023-02-12T01:52:25.161Z,3.77
2023-02-12T01:54:57.110Z,3.75
2023-02-12T01:57:28.743Z,3.76
2023-02-12T01:59:58.541Z,3.77
2023-02-12T02:02:26.561Z,3.78
2023-02-12T02:04:57.462Z,3.74
2023-02-12T02:07:24.703Z,3.76
2023-02-12T02:09:53.105Z,3.73
2023-02-12T02:12:38.867Z,3.74
2023-02-12T02:15:06.498Z,3.74
2023-02-12T02:17:45.843Z,3.74
2023-02-12T02:20:32.990Z,3.79
2023-02-12T02:23:24.134Z,3.81
2023-02-12T02:26:29.254Z,3.77
2023-02-12T02:29:08.893Z,3.77
2023-02-12T02:31:42.812Z,3.76
2023-02-12T02:34:29.903Z,3.77
2023-02-12T02:37:10.975Z,3.77
2023-02-12T02:39:44.344Z,3.76
2023-02-12T02:42:25.546Z,3.72
2023-02-12T02:44:55.336Z,3.76
2023-02-12T02:47:31.527Z,3.75
2023-02-12T02:50:04.772Z,3.71
2023-02-12T02:52:51.406Z,3.69
2023-02-12T02:55:20.629Z,3.70
2023-02-12T02:57:56.120Z,3.73
2023-02-12T03:00:34.824Z,3.73
2023-02-12T03:03:25.897Z,3.72
2023-02-12T03:05:57.423Z,3.73
2023-02-12T03:08:34.237Z,3.72
2023-02-12T03:11:10.936Z,3.71
2023-02-12T03:13:57.048Z,3.73
2023-02-12T03:16:50.268Z,3.70
2023-02-12T03:19:28.201Z,3.72
2023-02-12T03:22:13.850Z,3.71
2023-02-12T03:24:53.878Z,3.69
2023-02-12T03:27:41.006Z,3.68
2023-02-12T03:30:09.005Z,3.69
2023-02-12T03:32:52.592Z,3.66
2023-02-12T03:35:23.592Z,3.72
2023-02-12T03:38:06.891Z,3.70
2023-02-12T03:40:51.421Z,3.69
2023-02-12T03:43:33.669Z,3.71
2023-02-12T03:46:17.567Z,3.71
2023-02-12T03:48:57.331Z,3.69
2023-02-12T03:51:34.817Z,3.71
2023-02-12T03:54:07.117Z,3.69
2023-02-12T03:56:44.165Z,3.64
2023-02-12T03:59:12.043Z,3.63
2023-02-12T04:01:39.173Z,3.70
2023-02-12T04:04:07.860Z,3.65
2023-02-12T04:06:35.284Z,3.64
2023-02-12T04:09:07.156Z,3.65
2023-02-12T04:11:54.444Z,3.64
2023-02-12T04:14:36.516Z,3.64
2023-02-12T04:17:19.878Z,3.64
2023-02-12T04:20:10.659Z,3.60
2023-02-12T04:22:40.683Z,3.60
2023-02-12T04:25:23.369Z,3.58
2023-02-12T04:27:59.968Z,3.58
2023-02-12T04:30:40.709Z,3.61
2023-02-12T04:33:15.731Z,3.63
2023-02-12T04:35:54.371Z,3.61
2023-02-12T04:38:57.428Z,3.61
2023-02-12T04:41:25.808Z,3.58
2023-02-12T04:43:52.985Z,3.60
2023-02-12T04:46:20.065Z,3.60
2023-02-12T04:48:58.881Z,3.59
2023-02-12T04:51:25.986Z,3.59
2023-02-12T04:53:53.119Z,3.56
2023-02-12T04:56:20.293Z,3.58
2023-02-12T04:58:47.362Z,3.56
2023-02-12T05:01:17.324Z,3.55
2023-02-12T05:03:44.770Z,3.57
2023-02-12T05:06:12.041Z,3.54
2023-02-12T05:08:39.420Z,3.53
2023-02-12T05:11:09.026Z,3.57
2023-02-12T05:13:39.204Z,3.55
2023-02-12T05:16:10.076Z,3.57
2023-02-12T05:18:37.640Z,3.57
2023-02-12T05:21:05.871Z,3.57
2023-02-12T05:23:36.837Z,3.56
2023-02-12T05:26:07.773Z,3.58
2023-02-12T05:28:38.078Z,3.56
2023-02-12T05:31:09.110Z,3.53
2023-02-12T05:33:40.473Z,3.55
2023-02-12T05:36:12.753Z,3.55
2023-02-12T05:38:44.833Z,3.57
2023-02-12T05:41:23.286Z,3.55
2023-02-12T05:43:54.034Z,3.57
2023-02-12T05:46:24.137Z,3.54
2023-02-12T05:48:55.981Z,3.53
2023-02-12T05:51:28.102Z,3.54
2023-02-12T05:54:05.023Z,3.57
2023-02-12T05:56:42.230Z,3.52
2023-02-12T05:59:23.778Z,3.51
2023-02-12T06:01:51.835Z,3.51
2023-02-12T06:04:25.023Z,3.52
2023-02-12T06:06:56.834Z,3.49
2023-02-12T06:09:26.629Z,3.51
2023-02-12T06:11:53.679Z,3.51
2023-02-12T06:14:21.898Z,3.54
2023-02-12T06:16:55.902Z,3.50
2023-02-12T06:19:24.350Z,3.55
2023-02-12T06:21:51.646Z,3.53
2023-02-12T06:24:20.972Z,3.51
2023-02-12T06:26:52.333Z,3.50
2023-02-12T06:29:20.827Z,3.48
2023-02-12T06:31:48.668Z,3.47
2023-02-12T06:34:19.229Z,3.48
2023-02-12T06:36:47.623Z,3.44
2023-02-12T06:39:17.111Z,3.46
2023-02-12T06:41:47.265Z,3.45
2023-02-12T06:44:14.352Z,3.49
2023-02-12T06:46:41.856Z,3.47
2023-02-12T06:49:12.401Z,3.47
2023-02-12T06:51:41.338Z,3.52
2023-02-12T06:54:29.386Z,3.50
2023-02-12T06:56:56.492Z,3.52
2023-02-12T06:59:23.669Z,3.55
2023-02-12T07:01:50.860Z,3.56
2023-02-12T07:04:17.952Z,3.57
2023-02-12T07:06:50.152Z,3.56
2023-02-12T07:09:19.847Z,3.57
2023-02-12T07:11:46.990Z,3.53
2023-02-12T07:14:17.778Z,3.58
2023-02-12T07:16:45.130Z,3.57
2023-02-12T07:19:13.403Z,3.58
2023-02-12T07:21:40.597Z,3.58
2023-02-12T07:24:08.216Z,3.59
2023-02-12T07:26:40.487Z,3.62
2023-02-12T07:29:08.022Z,3.61
2023-02-12T07:31:35.201Z,3.65
2023-02-12T07:34:02.451Z,3.64
2023-02-12T07:36:35.840Z,3.67
2023-02-12T07:39:07.102Z,3.71
2023-02-12T07:41:35.876Z,3.71
2023-02-12T07:44:10.179Z,3.73
2023-02-12T07:46:49.099Z,3.75
2023-02-12T07:49:22.547Z,3.81
2023-02-12T07:51:50.995Z,3.82
2023-02-12T07:54:20.668Z,3.84
2023-02-12T07:56:47.815Z,3.83
2023-02-12T07:59:19.507Z,3.82
2023-02-12T08:01:52.036Z,3.82
2023-02-12T08:04:32.887Z,3.91
2023-02-12T08:07:00.094Z,3.93
2023-02-12T08:09:31.218Z,3.91
2023-02-12T08:11:59.597Z,3.90
2023-02-12T08:14:27.466Z,3.89
2023-02-12T08:16:59.828Z,3.89
2023-02-12T08:19:30.071Z,3.89
2023-02-12T08:22:01.566Z,3.91
2023-02-12T08:24:34.209Z,3.91
2023-02-12T08:27:01.752Z,3.94
2023-02-12T08:29:31.841Z,3.90
2023-02-12T08:32:03.555Z,3.90
2023-02-12T08:34:33.757Z,3.95
2023-02-12T08:37:09.685Z,3.94
2023-02-12T08:39:39.597Z,4.01
2023-02-12T08:42:06.648Z,4.07
2023-02-12T08:44:33.815Z,4.10
2023-02-12T08:47:00.969Z,4.07
2023-02-12T08:49:32.623Z,4.09
2023-02-12T08:52:13.724Z,4.11
2023-02-12T08:54:42.370Z,4.12
2023-02-12T08:57:16.906Z,4.11
2023-02-12T08:59:51.474Z,4.11
2023-02-12T09:02:21.347Z,4.16
2023-02-12T09:04:48.428Z,4.20
2023-02-12T09:07:15.464Z,4.32
2023-02-12T09:09:45.312Z,4.27
2023-02-12T09:12:12.424Z,4.28
2023-02-12T09:14:39.499Z,4.22
2023-02-12T09:19:54.553Z,4.24
2023-02-12T09:22:21.882Z,4.30
2023-02-12T09:24:54.710Z,4.29
2023-02-12T09:27:22.980Z,4.27
2023-02-12T09:29:54.730Z,4.25
2023-02-12T09:32:21.868Z,4.41
2023-02-12T09:34:50.953Z,4.46
2023-02-12T09:37:18.028Z,4.53
2023-02-12T09:39:50.150Z,4.57
2023-02-12T09:42:55.531Z,4.79
2023-02-12T09:45:26.650Z,4.87
2023-02-12T09:48:18.505Z,4.87
2023-02-12T09:50:56.597Z,4.87
2023-02-12T09:53:30.363Z,4.88
2023-02-12T09:55:58.137Z,4.89
2023-02-12T09:58:38.336Z,4.91
2023-02-12T10:01:17.978Z,4.92
2023-02-12T10:03:47.750Z,4.94
2023-02-12T10:06:19.115Z,4.92
2023-02-12T10:09:01.782Z,4.96
2023-02-12T10:11:37.021Z,5.01
2023-02-12T10:14:44.751Z,5.03
2023-02-12T10:18:02.202Z,5.08
2023-02-12T10:20:51.955Z,5.06
2023-02-12T10:23:21.300Z,5.06
2023-02-12T10:25:54.455Z,5.17
2023-02-12T10:28:42.807Z,5.24
2023-02-12T10:31:23.422Z,5.40
2023-02-12T10:33:54.814Z,5.31
2023-02-12T10:36:42.874Z,5.26
2023-02-12T10:39:12.687Z,5.34
2023-02-12T10:42:02.870Z,5.27
2023-02-12T10:44:31.208Z,5.34
2023-02-12T10:47:05.202Z,5.55
2023-02-12T10:49:35.390Z,5.55
2023-02-12T10:52:30.926Z,5.42
2023-02-12T10:54:58.189Z,5.43
2023-02-12T10:57:29.662Z,5.31
2023-02-12T11:00:16.205Z,5.39
2023-02-12T11:03:23.183Z,5.40
2023-02-12T11:05:54.392Z,5.40
2023-02-12T11:08:36.219Z,5.36
2023-02-12T11:11:19.700Z,5.40
2023-02-12T11:13:54.356Z,5.41
2023-02-12T11:16:36.740Z,5.52
2023-02-12T11:19:09.123Z,5.50
2023-02-12T11:21:44.046Z,5.45
2023-02-12T11:24:36.435Z,5.47
2023-02-12T11:27:15.535Z,5.39
2023-02-12T11:29:53.825Z,5.54
2023-02-12T11:32:20.997Z,5.54
2023-02-12T11:35:12.657Z,5.63
2023-02-12T11:37:43.406Z,5.67
2023-02-12T11:40:19.117Z,5.77
2023-02-12T11:42:59.842Z,5.84
2023-02-12T11:45:52.808Z,5.77
2023-02-12T11:48:27.479Z,5.66
2023-02-12T11:50:58.180Z,5.55
2023-02-12T11:53:42.834Z,5.44
2023-02-12T11:56:12.933Z,5.47
2023-02-12T11:58:45.871Z,5.59
2023-02-12T12:01:20.209Z,5.59
2023-02-12T12:04:03.174Z,5.58
2023-02-12T12:06:57.253Z,5.66
2023-02-12T12:09:37.687Z,5.59
2023-02-12T12:12:43.100Z,5.51
2023-02-12T12:15:42.350Z,5.44
2023-02-12T12:19:03.865Z,5.46
2023-02-12T12:22:16.089Z,5.34
2023-02-12T12:25:10.198Z,5.27
2023-02-12T12:28:08.429Z,5.31
2023-02-12T12:30:51.831Z,5.26
2023-02-12T12:33:39.819Z,5.29
2023-02-12T12:36:14.685Z,5.28
2023-02-12T12:38:58.430Z,5.27
2023-02-12T12:41:40.877Z,5.16
2023-02-12T12:44:38.856Z,5.13
2023-02-12T12:47:27.762Z,5.10
2023-02-12T12:50:08.407Z,5.17
2023-02-12T12:53:06.736Z,5.09
2023-02-12T12:56:26.295Z,5.07
2023-02-12T12:59:12.107Z,5.04
2023-02-12T13:02:17.350Z,5.01
2023-02-12T13:04:59.452Z,4.99
2023-02-12T13:07:54.499Z,5.05
2023-02-12T13:10:46.221Z,5.11
2023-02-12T13:13:36.157Z,5.17
2023-02-12T13:16:40.304Z,5.19
2023-02-12T13:19:27.674Z,5.22
2023-02-12T13:22:21.278Z,5.26
2023-02-12T13:25:26.526Z,5.25
2023-02-12T13:27:56.437Z,5.27
2023-02-12T13:30:36.958Z,5.27
2023-02-12T13:33:15.739Z,5.30
2023-02-12T13:35:47.201Z,5.33
2023-02-12T13:38:26.133Z,5.39
2023-02-12T13:41:02.384Z,5.35
2023-02-12T13:43:47.441Z,5.33
2023-02-12T13:46:25.260Z,5.33
2023-02-12T13:49:18.840Z,5.26
2023-02-12T13:52:14.252Z,5.21
2023-02-12T13:54:57.536Z,5.16
2023-02-12T13:57:24.611Z,5.19
2023-02-12T13:59:56.196Z,5.22
2023-02-12T14:02:29.648Z,5.20
2023-02-12T14:05:00.644Z,5.20
2023-02-12T14:07:46.962Z,5.22
2023-02-12T14:10:26.362Z,5.21
2023-02-12T14:13:12.182Z,5.21
2023-02-12T14:15:45.407Z,5.22
2023-02-12T14:18:36.689Z,5.17
2023-02-12T14:21:12.788Z,5.18
2023-02-12T14:23:46.862Z,5.19
2023-02-12T14:26:16.334Z,5.16
2023-02-12T14:29:00.127Z,5.15
2023-02-12T14:31:27.865Z,5.18
2023-02-12T14:34:11.291Z,5.14
2023-02-12T14:36:49.677Z,5.21
2023-02-12T14:39:24.530Z,5.19
2023-02-12T14:42:06.694Z,5.22
2023-02-12T14:44:49.412Z,5.26
2023-02-12T14:47:36.454Z,5.23
2023-02-12T14:50:37.395Z,5.24
2023-02-12T14:53:13.824Z,5.16
2023-02-12T14:55:47.109Z,5.19
2023-02-12T14:58:25.760Z,5.16
2023-02-12T15:01:02.568Z,5.12
2023-02-12T15:03:40.033Z,5.08
2023-02-12T15:06:23.735Z,5.07
2023-02-12T15:09:02.724Z,5.03
2023-02-12T15:11:40.077Z,5.01
2023-02-12T15:14:19.683Z,4.98
2023-02-12T15:16:56.611Z,4.95
2023-02-12T15:19:44.787Z,4.95
2023-02-12T15:22:25.799Z,4.89
2023-02-12T15:24:53.263Z,4.86
2023-02-12T15:27:24.704Z,4.87
2023-02-12T15:29:53.883Z,4.86
2023-02-12T15:32:29.590Z,4.89
2023-02-12T15:34:56.907Z,4.85
2023-02-12T15:37:28.502Z,4.80
2023-02-12T15:40:02.370Z,4.82
2023-02-12T15:42:35.857Z,4.85
2023-02-12T15:45:33.123Z,4.82
2023-02-12T15:48:08.345Z,4.83
2023-02-12T15:50:47.102Z,4.80
2023-02-12T15:53:17.769Z,4.80
2023-02-12T15:55:50.344Z,4.81
2023-02-12T15:58:24.937Z,4.82
2023-02-12T16:00:53.527Z,4.82
2023-02-12T16:03:35.416Z,4.81
2023-02-12T16:06:17.120Z,4.73
2023-02-12T16:09:01.814Z,4.74
2023-02-12T16:11:30.882Z,4.69
2023-02-12T16:14:08.868Z,4.68
2023-02-12T16:17:01.931Z,4.69
2023-02-12T16:19:43.238Z,4.67
2023-02-12T16:22:19.626Z,4.67
2023-02-12T16:24:50.412Z,4.65
2023-02-12T16:27:19.124Z,4.65
2023-02-12T16:29:52.600Z,4.64
2023-02-12T16:32:43.375Z,4.62
2023-02-12T16:35:13.299Z,4.61
2023-02-12T16:38:20.650Z,4.60
2023-02-12T16:41:15.270Z,4.60
2023-02-12T16:43:42.555Z,4.59
2023-02-12T16:46:11.111Z,4.59
2023-02-12T16:48:44.721Z,4.61
2023-02-12T16:51:32.792Z,4.61
2023-02-12T16:54:05.391Z,4.62
2023-02-12T16:56:38.855Z,4.60
2023-02-12T16:59:06.875Z,4.60
2023-02-12T17:01:35.626Z,4.58
2023-02-12T17:04:08.637Z,4.57
2023-02-12T17:06:35.791Z,4.58
2023-02-12T17:09:03.448Z,4.55
2023-02-12T17:11:31.009Z,4.55
2023-02-12T17:14:06.521Z,4.57
2023-02-12T17:16:36.610Z,4.57
2023-02-12T17:19:06.704Z,4.55
2023-02-12T17:21:44.583Z,4.53
2023-02-12T17:24:29.708Z,4.53
2023-02-12T17:27:03.526Z,4.55
2023-02-12T17:29:39.968Z,4.54
2023-02-12T17:32:09.325Z,4.56
2023-02-12T17:34:48.582Z,4.55
2023-02-12T17:37:18.108Z,4.55
2023-02-12T17:39:45.486Z,4.52
2023-02-12T17:42:12.687Z,4.53
2023-02-12T17:44:40.194Z,4.50
2023-02-12T17:47:07.620Z,4.51
2023-02-12T17:49:40.052Z,4.51
2023-02-12T17:52:07.652Z,4.48
2023-02-12T17:54:34.845Z,4.49
2023-02-12T17:57:02.100Z,4.47
2023-02-12T17:59:29.785Z,4.47
2023-02-12T18:01:57.124Z,4.45
2023-02-12T18:04:24.266Z,4.47
2023-02-12T18:06:54.373Z,4.44
2023-02-12T18:09:21.441Z,4.45
2023-02-12T18:11:48.859Z,4.43
2023-02-12T18:14:15.952Z,4.44
2023-02-12T18:16:43.371Z,4.47
2023-02-12T18:19:10.650Z,4.47
2023-02-12T18:21:38.775Z,4.45
2023-02-12T18:24:06.588Z,4.44
2023-02-12T18:26:36.687Z,4.43
2023-02-12T18:29:03.780Z,4.40
2023-02-12T18:31:33.408Z,4.45
2023-02-12T18:34:00.676Z,4.43
2023-02-12T18:36:28.045Z,4.39
2023-02-12T18:38:55.204Z,4.42
2023-02-12T18:41:26.788Z,4.46
2023-02-12T18:43:54.929Z,4.44
2023-02-12T18:46:29.084Z,4.50
2023-02-12T18:48:57.265Z,4.49
2023-02-12T18:51:27.131Z,4.47
2023-02-12T18:53:56.514Z,4.47
2023-02-12T18:56:24.176Z,4.44
2023-02-12T18:58:57.938Z,4.48
2023-02-12T19:01:28.631Z,4.46
2023-02-12T19:04:00.148Z,4.40
2023-02-12T19:06:28.672Z,4.40
2023-02-12T19:09:01.593Z,4.40
2023-02-12T19:11:30.337Z,4.41
2023-02-12T19:13:58.222Z,4.41
2023-02-12T19:16:26.704Z,4.43
2023-02-12T19:18:56.033Z,4.38
2023-02-12T19:21:26.240Z,4.31
2023-02-12T19:23:54.997Z,4.34
2023-02-12T19:26:22.709Z,4.39
2023-02-12T19:28:49.881Z,4.30
2023-02-12T19:31:19.010Z,4.30
2023-02-12T19:33:50.705Z,4.32
2023-02-12T19:36:21.643Z,4.31
2023-02-12T19:38:49.359Z,4.31
2023-02-12T19:41:21.635Z,4.33
2023-02-12T19:43:52.303Z,4.33
2023-02-12T19:46:20.458Z,4.30
2023-02-12T19:48:48.450Z,4.37
2023-02-12T19:51:17.979Z,4.32
2023-02-12T19:53:46.075Z,4.23
2023-02-12T19:56:13.999Z,4.10
2023-02-12T19:58:41.959Z,4.04
2023-02-12T20:01:10.995Z,3.96
2023-02-12T20:03:38.837Z,3.98
2023-02-12T20:06:09.529Z,4.04
2023-02-12T20:08:37.884Z,3.94
2023-02-12T20:11:10.033Z,3.94
2023-02-12T20:13:37.434Z,4.03
2023-02-12T20:16:07.141Z,4.07
2023-02-12T20:18:34.853Z,3.98
2023-02-12T20:21:08.355Z,3.98
2023-02-12T20:23:36.001Z,4.05
2023-02-12T20:26:05.834Z,4.07
2023-02-12T20:28:34.497Z,4.11
2023-02-12T20:31:22.873Z,4.11
2023-02-12T20:33:57.850Z,4.07
2023-02-12T20:36:25.629Z,4.07
2023-02-12T20:38:54.122Z,4.14
2023-02-12T20:41:21.385Z,4.10
2023-02-12T20:43:49.136Z,4.14
2023-02-12T20:46:20.556Z,4.16
2023-02-12T20:48:48.105Z,4.14
2023-02-12T20:51:16.795Z,4.09
2023-02-12T20:53:44.650Z,4.15
2023-02-12T20:56:22.108Z,4.16
2023-02-12T20:58:49.646Z,4.11
2023-02-12T21:01:22.405Z,4.14
2023-02-12T21:03:51.619Z,4.12
2023-02-12T21:06:20.739Z,4.15
2023-02-12T21:08:48.208Z,4.16
2023-02-12T21:11:22.139Z,4.15
2023-02-12T21:14:02.261Z,4.14
2023-02-12T21:16:35.704Z,4.13
2023-02-12T21:19:06.560Z,4.12
2023-02-12T21:21:35.966Z,4.03
2023-02-12T21:24:06.251Z,4.03
2023-02-12T21:26:34.434Z,4.07
2023-02-12T21:29:02.990Z,4.09
2023-02-12T21:31:37.351Z,4.12
2023-02-12T21:34:06.434Z,4.08
2023-02-12T21:36:42.276Z,4.03
2023-02-12T21:39:12.762Z,3.96
2023-02-12T21:41:41.507Z,3.93
2023-02-12T21:44:15.176Z,3.93
2023-02-12T21:46:42.352Z,3.90
2023-02-12T21:49:11.782Z,3.90
2023-02-12T21:51:41.704Z,3.84
2023-02-12T21:54:11.619Z,3.77
2023-02-12T21:56:40.936Z,3.75
2023-02-12T21:59:08.715Z,3.77
2023-02-12T22:01:39.266Z,3.78
2023-02-12T22:04:07.482Z,3.83
2023-02-12T22:06:39.920Z,3.89
2023-02-12T22:09:08.833Z,3.96
2023-02-12T22:11:37.963Z,3.97
2023-02-12T22:14:07.259Z,3.96
2023-02-12T22:16:36.085Z,3.94
2023-02-12T22:19:04.545Z,3.92
2023-02-12T22:21:35.483Z,3.93
2023-02-12T22:24:05.182Z,3.95
2023-02-12T22:26:33.103Z,3.94
2023-02-12T22:29:03.572Z,3.95
2023-02-12T22:31:33.574Z,3.93
2023-02-12T22:34:03.350Z,3.91
2023-02-12T22:36:31.190Z,3.90
2023-02-12T22:38:59.307Z,3.93
2023-02-12T22:41:28.286Z,3.94
2023-02-12T22:43:55.675Z,4.03
2023-02-12T22:46:23.048Z,4.09
2023-02-12T22:48:50.237Z,4.14
2023-02-12T22:51:22.216Z,4.12
2023-02-12T22:53:49.495Z,4.12
2023-02-12T22:56:17.325Z,4.13
2023-02-12T22:58:44.722Z,4.13
2023-02-12T23:01:14.789Z,4.15
2023-02-12T23:03:42.361Z,4.13
2023-02-12T23:06:19.019Z,4.13
2023-02-12T23:08:52.879Z,4.08
2023-02-12T23:11:20.602Z,4.06
2023-02-12T23:13:48.847Z,4.07
2023-02-12T23:16:16.325Z,4.10
2023-02-12T23:18:43.976Z,4.12
2023-02-12T23:21:11.297Z,4.09
2023-02-12T23:23:38.424Z,4.12
2023-02-12T23:26:05.957Z,4.16
2023-02-12T23:28:33.188Z,4.15
2023-02-12T23:31:00.730Z,4.12
2023-02-12T23:33:28.132Z,4.14
2023-02-12T23:35:55.209Z,4.13
2023-02-12T23:38:22.481Z,4.15
2023-02-12T23:40:49.688Z,4.15
2023-02-12T23:43:23.535Z,4.13
2023-02-12T23:45:50.677Z,4.11
2023-02-12T23:48:17.753Z,4.09
2023-02-12T23:50:47.700Z,4.09
2023-02-12T23:53:15.951Z,4.10
2023-02-12T23:55:43.148Z,4.11
2023-02-12T23:58:11.510Z,4.14
